sensor_id;sensor_type;location;lat;lon;timestamp;temperature;humidity
3037;DHT22;1528;52.550;13.408;2024-02-14T00:00:30;5.80;38.60
3037;DHT22;1528;52.550;13.408;2024-02-14T00:03:15;5.80;39.00
3037;DHT22;1528;52.550;13.408;2024-02-14T00:06:03;5.80;38.40
3037;DHT22;1528;52.550;13.408;2024-02-14T00:08:49;5.80;38.10
3037;DHT22;1528;52.550;13.408;2024-02-14T00:11:37;5.80;38.00
3037;DHT22;1528;52.550;13.408;2024-02-14T00:14:22;5.80;37.90
3037;DHT22;1528;52.550;13.408;2024-02-14T00:17:08;5.80;37.80
3037;DHT22;1528;52.550;13.408;2024-02-14T00:19:54;5.80;37.80
3037;DHT22;1528;52.550;13.408;2024-02-14T00:22:41;5.80;37.80
3037;DHT22;1528;52.550;13.408;2024-02-14T00:25:26;5.80;37.80
3037;DHT22;1528;52.550;13.408;2024-02-14T00:28:12;5.70;37.60
3037;DHT22;1528;52.550;13.408;2024-02-14T00:30:58;5.70;37.70
3037;DHT22;1528;52.550;13.408;2024-02-14T00:33:44;5.90;37.80
3037;DHT22;1528;52.550;13.408;2024-02-14T00:36:30;5.70;37.70
3037;DHT22;1528;52.550;13.408;2024-02-14T00:39:17;5.70;37.50
3037;DHT22;1528;52.550;13.408;2024-02-14T00:42:03;5.70;37.70
3037;DHT22;1528;52.550;13.408;2024-02-14T00:44:48;5.60;37.60
3037;DHT22;1528;52.550;13.408;2024-02-14T00:47:34;5.60;37.60
3037;DHT22;1528;52.550;13.408;2024-02-14T00:50:20;5.60;37.60
3037;DHT22;1528;52.550;13.408;2024-02-14T00:53:05;5.70;37.60
3037;DHT22;1528;52.550;13.408;2024-02-14T00:55:52;5.70;37.70
3037;DHT22;1528;52.550;13.408;2024-02-14T00:58:38;5.80;37.50
3037;DHT22;1528;52.550;13.408;2024-02-14T01:01:24;5.80;37.60
3037;DHT22;1528;52.550;13.408;2024-02-14T01:04:09;5.70;37.40
3037;DHT22;1528;52.550;13.408;2024-02-14T01:06:55;5.70;37.40
3037;DHT22;1528;52.550;13.408;2024-02-14T01:09:41;5.80;37.40
3037;DHT22;1528;52.550;13.408;2024-02-14T01:12:28;5.70;37.40
3037;DHT22;1528;52.550;13.408;2024-02-14T01:15:15;5.70;37.40
3037;DHT22;1528;52.550;13.408;2024-02-14T01:18:00;5.70;37.60
3037;DHT22;1528;52.550;13.408;2024-02-14T01:20:46;5.70;37.50
3037;DHT22;1528;52.550;13.408;2024-02-14T01:23:31;5.70;37.60
3037;DHT22;1528;52.550;13.408;2024-02-14T01:26:17;5.70;37.60
3037;DHT22;1528;52.550;13.408;2024-02-14T01:29:04;5.70;37.80
3037;DHT22;1528;52.550;13.408;2024-02-14T01:31:49;5.70;37.70
3037;DHT22;1528;52.550;13.408;2024-02-14T01:34:35;5.70;37.80
3037;DHT22;1528;52.550;13.408;2024-02-14T01:37:21;5.70;37.50
3037;DHT22;1528;52.550;13.408;2024-02-14T01:40:07;5.60;37.70
3037;DHT22;1528;52.550;13.408;2024-02-14T01:42:53;5.70;37.80
3037;DHT22;1528;52.550;13.408;2024-02-14T01:45:41;5.70;37.70
3037;DHT22;1528;52.550;13.408;2024-02-14T01:48:26;5.70;37.60
3037;DHT22;1528;52.550;13.408;2024-02-14T01:51:13;5.60;37.60
3037;DHT22;1528;52.550;13.408;2024-02-14T01:54:03;5.60;37.80
3037;DHT22;1528;52.550;13.408;2024-02-14T01:56:48;5.70;37.70
3037;DHT22;1528;52.550;13.408;2024-02-14T01:59:34;5.70;37.70
3037;DHT22;1528;52.550;13.408;2024-02-14T02:02:22;5.70;37.70
3037;DHT22;1528;52.550;13.408;2024-02-14T02:05:07;5.70;37.60
3037;DHT22;1528;52.550;13.408;2024-02-14T02:07:53;5.80;37.60
3037;DHT22;1528;52.550;13.408;2024-02-14T02:10:38;5.80;37.50
3037;DHT22;1528;52.550;13.408;2024-02-14T02:13:24;5.80;37.50
3037;DHT22;1528;52.550;13.408;2024-02-14T02:16:10;5.80;37.60
3037;DHT22;1528;52.550;13.408;2024-02-14T02:18:58;5.80;37.60
3037;DHT22;1528;52.550;13.408;2024-02-14T02:21:43;5.80;37.60
3037;DHT22;1528;52.550;13.408;2024-02-14T02:24:31;5.80;37.50
3037;DHT22;1528;52.550;13.408;2024-02-14T02:27:17;5.80;37.60
3037;DHT22;1528;52.550;13.408;2024-02-14T02:30:03;5.80;37.70
3037;DHT22;1528;52.550;13.408;2024-02-14T02:32:49;5.70;37.60
3037;DHT22;1528;52.550;13.408;2024-02-14T02:35:35;5.70;37.50
3037;DHT22;1528;52.550;13.408;2024-02-14T02:38:21;5.70;37.60
3037;DHT22;1528;52.550;13.408;2024-02-14T02:41:08;5.60;37.80
3037;DHT22;1528;52.550;13.408;2024-02-14T02:43:53;5.60;37.90
3037;DHT22;1528;52.550;13.408;2024-02-14T02:46:39;5.60;37.80
3037;DHT22;1528;52.550;13.408;2024-02-14T02:49:25;5.60;37.90
3037;DHT22;1528;52.550;13.408;2024-02-14T02:52:11;5.60;38.10
3037;DHT22;1528;52.550;13.408;2024-02-14T02:54:57;5.50;38.20
3037;DHT22;1528;52.550;13.408;2024-02-14T02:57:44;5.50;38.30
3037;DHT22;1528;52.550;13.408;2024-02-14T03:00:29;5.50;38.50
3037;DHT22;1528;52.550;13.408;2024-02-14T03:03:15;5.50;38.30
3037;DHT22;1528;52.550;13.408;2024-02-14T03:06:01;5.50;38.30
3037;DHT22;1528;52.550;13.408;2024-02-14T03:08:48;5.50;39.00
3037;DHT22;1528;52.550;13.408;2024-02-14T03:11:36;5.50;38.60
3037;DHT22;1528;52.550;13.408;2024-02-14T03:14:23;5.50;38.60
3037;DHT22;1528;52.550;13.408;2024-02-14T03:17:09;5.50;38.70
3037;DHT22;1528;52.550;13.408;2024-02-14T03:19:54;5.50;38.70
3037;DHT22;1528;52.550;13.408;2024-02-14T03:22:41;5.50;38.60
3037;DHT22;1528;52.550;13.408;2024-02-14T03:25:28;5.50;38.60
3037;DHT22;1528;52.550;13.408;2024-02-14T03:28:15;5.60;38.90
3037;DHT22;1528;52.550;13.408;2024-02-14T03:31:01;5.50;38.90
3037;DHT22;1528;52.550;13.408;2024-02-14T03:33:47;5.50;38.90
3037;DHT22;1528;52.550;13.408;2024-02-14T03:36:32;5.50;38.80
3037;DHT22;1528;52.550;13.408;2024-02-14T03:39:19;5.50;38.90
3037;DHT22;1528;52.550;13.408;2024-02-14T03:42:04;5.50;39.50
3037;DHT22;1528;52.550;13.408;2024-02-14T03:44:51;5.50;38.80
3037;DHT22;1528;52.550;13.408;2024-02-14T03:47:38;5.50;38.90
3037;DHT22;1528;52.550;13.408;2024-02-14T03:50:26;5.50;39.00
3037;DHT22;1528;52.550;13.408;2024-02-14T03:53:11;5.60;39.00
3037;DHT22;1528;52.550;13.408;2024-02-14T03:55:58;5.50;39.00
3037;DHT22;1528;52.550;13.408;2024-02-14T03:58:44;5.50;39.00
3037;DHT22;1528;52.550;13.408;2024-02-14T04:01:30;5.40;39.00
3037;DHT22;1528;52.550;13.408;2024-02-14T04:04:18;5.40;39.10
3037;DHT22;1528;52.550;13.408;2024-02-14T04:07:03;5.40;38.90
3037;DHT22;1528;52.550;13.408;2024-02-14T04:09:49;5.40;39.00
3037;DHT22;1528;52.550;13.408;2024-02-14T04:12:35;5.40;39.80
3037;DHT22;1528;52.550;13.408;2024-02-14T04:15:20;5.40;39.10
3037;DHT22;1528;52.550;13.408;2024-02-14T04:18:06;5.40;39.10
3037;DHT22;1528;52.550;13.408;2024-02-14T04:20:53;5.50;39.10
3037;DHT22;1528;52.550;13.408;2024-02-14T04:23:38;5.50;39.30
3037;DHT22;1528;52.550;13.408;2024-02-14T04:26:24;5.50;39.10
3037;DHT22;1528;52.550;13.408;2024-02-14T04:29:11;5.50;39.00
3037;DHT22;1528;52.550;13.408;2024-02-14T04:31:56;5.50;39.00
3037;DHT22;1528;52.550;13.408;2024-02-14T04:34:42;5.50;38.90
3037;DHT22;1528;52.550;13.408;2024-02-14T04:37:29;5.60;38.90
3037;DHT22;1528;52.550;13.408;2024-02-14T04:40:15;5.60;38.80
3037;DHT22;1528;52.550;13.408;2024-02-14T04:43:00;5.70;39.00
3037;DHT22;1528;52.550;13.408;2024-02-14T04:45:46;5.70;38.70
3037;DHT22;1528;52.550;13.408;2024-02-14T04:48:32;5.80;38.60
3037;DHT22;1528;52.550;13.408;2024-02-14T04:51:18;5.80;38.50
3037;DHT22;1528;52.550;13.408;2024-02-14T04:54:05;5.80;38.40
3037;DHT22;1528;52.550;13.408;2024-02-14T04:56:50;5.80;38.50
3037;DHT22;1528;52.550;13.408;2024-02-14T04:59:36;5.90;38.30
3037;DHT22;1528;52.550;13.408;2024-02-14T05:02:21;5.90;38.30
3037;DHT22;1528;52.550;13.408;2024-02-14T05:05:07;6.00;38.20
3037;DHT22;1528;52.550;13.408;2024-02-14T05:07:54;5.90;38.20
3037;DHT22;1528;52.550;13.408;2024-02-14T05:10:41;6.00;38.20
3037;DHT22;1528;52.550;13.408;2024-02-14T05:13:27;6.00;38.00
3037;DHT22;1528;52.550;13.408;2024-02-14T05:16:12;6.00;38.00
3037;DHT22;1528;52.550;13.408;2024-02-14T05:18:58;6.00;38.10
3037;DHT22;1528;52.550;13.408;2024-02-14T05:21:45;6.00;37.90
3037;DHT22;1528;52.550;13.408;2024-02-14T05:24:30;6.00;37.90
3037;DHT22;1528;52.550;13.408;2024-02-14T05:27:17;6.10;37.70
3037;DHT22;1528;52.550;13.408;2024-02-14T05:30:03;6.10;37.80
3037;DHT22;1528;52.550;13.408;2024-02-14T05:32:49;6.10;37.60
3037;DHT22;1528;52.550;13.408;2024-02-14T05:35:36;6.10;37.50
3037;DHT22;1528;52.550;13.408;2024-02-14T05:38:22;6.10;37.40
3037;DHT22;1528;52.550;13.408;2024-02-14T05:41:07;6.10;37.40
3037;DHT22;1528;52.550;13.408;2024-02-14T05:43:54;6.10;37.40
3037;DHT22;1528;52.550;13.408;2024-02-14T05:46:40;6.10;37.70
3037;DHT22;1528;52.550;13.408;2024-02-14T05:49:26;6.00;38.00
3037;DHT22;1528;52.550;13.408;2024-02-14T05:52:12;6.00;37.90
3037;DHT22;1528;52.550;13.408;2024-02-14T05:55:00;6.00;38.00
3037;DHT22;1528;52.550;13.408;2024-02-14T05:57:45;6.00;38.00
3037;DHT22;1528;52.550;13.408;2024-02-14T06:00:32;6.00;38.30
3037;DHT22;1528;52.550;13.408;2024-02-14T06:03:18;6.00;38.10
3037;DHT22;1528;52.550;13.408;2024-02-14T06:06:03;6.00;38.30
3037;DHT22;1528;52.550;13.408;2024-02-14T06:08:49;5.90;38.20
3037;DHT22;1528;52.550;13.408;2024-02-14T06:11:34;6.10;38.40
3037;DHT22;1528;52.550;13.408;2024-02-14T06:14:20;6.00;38.30
3037;DHT22;1528;52.550;13.408;2024-02-14T06:17:07;6.00;38.50
3037;DHT22;1528;52.550;13.408;2024-02-14T06:19:53;5.90;38.40
3037;DHT22;1528;52.550;13.408;2024-02-14T06:22:38;5.90;38.60
3037;DHT22;1528;52.550;13.408;2024-02-14T06:25:24;5.90;38.60
3037;DHT22;1528;52.550;13.408;2024-02-14T06:28:11;5.90;38.70
3037;DHT22;1528;52.550;13.408;2024-02-14T06:30:56;5.90;38.90
3037;DHT22;1528;52.550;13.408;2024-02-14T06:33:44;6.00;39.00
3037;DHT22;1528;52.550;13.408;2024-02-14T06:36:29;6.00;38.90
3037;DHT22;1528;52.550;13.408;2024-02-14T06:39:15;6.00;38.70
3037;DHT22;1528;52.550;13.408;2024-02-14T06:42:00;6.00;38.60
3037;DHT22;1528;52.550;13.408;2024-02-14T06:44:46;6.00;38.60
3037;DHT22;1528;52.550;13.408;2024-02-14T06:47:31;6.10;38.60
3037;DHT22;1528;52.550;13.408;2024-02-14T06:50:19;6.10;38.70
3037;DHT22;1528;52.550;13.408;2024-02-14T06:53:04;6.10;38.60
3037;DHT22;1528;52.550;13.408;2024-02-14T06:55:50;6.10;39.20
3037;DHT22;1528;52.550;13.408;2024-02-14T06:58:35;6.20;38.40
3037;DHT22;1528;52.550;13.408;2024-02-14T07:01:22;6.20;38.30
3037;DHT22;1528;52.550;13.408;2024-02-14T07:04:07;6.20;38.30
3037;DHT22;1528;52.550;13.408;2024-02-14T07:06:56;6.20;38.20
3037;DHT22;1528;52.550;13.408;2024-02-14T07:09:42;6.20;38.40
3037;DHT22;1528;52.550;13.408;2024-02-14T07:12:30;6.30;38.20
3037;DHT22;1528;52.550;13.408;2024-02-14T07:15:16;6.30;38.10
3037;DHT22;1528;52.550;13.408;2024-02-14T07:18:02;6.40;37.80
3037;DHT22;1528;52.550;13.408;2024-02-14T07:20:47;6.40;37.60
3037;DHT22;1528;52.550;13.408;2024-02-14T07:23:34;6.50;37.80
3037;DHT22;1528;52.550;13.408;2024-02-14T07:26:23;6.50;37.70
3037;DHT22;1528;52.550;13.408;2024-02-14T07:29:08;6.50;37.70
3037;DHT22;1528;52.550;13.408;2024-02-14T07:31:58;6.60;37.80
3037;DHT22;1528;52.550;13.408;2024-02-14T07:34:44;6.70;37.80
3037;DHT22;1528;52.550;13.408;2024-02-14T07:37:30;6.70;37.20
3037;DHT22;1528;52.550;13.408;2024-02-14T07:40:17;6.80;37.40
3037;DHT22;1528;52.550;13.408;2024-02-14T07:43:03;6.80;37.40
3037;DHT22;1528;52.550;13.408;2024-02-14T07:45:51;6.90;37.10
3037;DHT22;1528;52.550;13.408;2024-02-14T07:48:36;7.00;37.00
3037;DHT22;1528;52.550;13.408;2024-02-14T07:51:22;7.00;36.60
3037;DHT22;1528;52.550;13.408;2024-02-14T07:54:07;7.10;36.20
3037;DHT22;1528;52.550;13.408;2024-02-14T07:56:54;7.20;36.20
3037;DHT22;1528;52.550;13.408;2024-02-14T07:59:40;7.20;36.00
3037;DHT22;1528;52.550;13.408;2024-02-14T08:02:25;7.20;35.70
3037;DHT22;1528;52.550;13.408;2024-02-14T08:05:11;7.40;35.90
3037;DHT22;1528;52.550;13.408;2024-02-14T08:07:57;7.30;35.80
3037;DHT22;1528;52.550;13.408;2024-02-14T08:10:43;7.30;35.90
3037;DHT22;1528;52.550;13.408;2024-02-14T08:13:30;7.30;35.80
3037;DHT22;1528;52.550;13.408;2024-02-14T08:16:15;7.40;35.70
3037;DHT22;1528;52.550;13.408;2024-02-14T08:19:02;7.40;36.20
3037;DHT22;1528;52.550;13.408;2024-02-14T08:21:47;7.50;36.10
3037;DHT22;1528;52.550;13.408;2024-02-14T08:24:33;7.60;36.50
3037;DHT22;1528;52.550;13.408;2024-02-14T08:27:19;7.70;36.50
3037;DHT22;1528;52.550;13.408;2024-02-14T08:30:07;7.70;36.80
3037;DHT22;1528;52.550;13.408;2024-02-14T08:32:53;7.80;36.80
3037;DHT22;1528;52.550;13.408;2024-02-14T08:35:38;7.80;36.70
3037;DHT22;1528;52.550;13.408;2024-02-14T08:38:24;7.90;36.60
3037;DHT22;1528;52.550;13.408;2024-02-14T08:41:09;7.90;37.50
3037;DHT22;1528;52.550;13.408;2024-02-14T08:43:55;8.00;37.00
3037;DHT22;1528;52.550;13.408;2024-02-14T08:46:42;8.00;36.90
3037;DHT22;1528;52.550;13.408;2024-02-14T08:49:29;8.10;36.90
3037;DHT22;1528;52.550;13.408;2024-02-14T08:52:14;8.10;36.60
3037;DHT22;1528;52.550;13.408;2024-02-14T08:55:00;8.10;36.80
3037;DHT22;1528;52.550;13.408;2024-02-14T08:57:47;8.20;37.40
3037;DHT22;1528;52.550;13.408;2024-02-14T09:00:38;8.20;37.20
3037;DHT22;1528;52.550;13.408;2024-02-14T09:03:26;8.30;37.20
3037;DHT22;1528;52.550;13.408;2024-02-14T09:06:12;8.40;37.20
3037;DHT22;1528;52.550;13.408;2024-02-14T09:09:00;8.40;37.70
3037;DHT22;1528;52.550;13.408;2024-02-14T09:11:46;8.40;37.60
3037;DHT22;1528;52.550;13.408;2024-02-14T09:14:31;8.40;38.50
3037;DHT22;1528;52.550;13.408;2024-02-14T09:17:17;8.50;38.20
3037;DHT22;1528;52.550;13.408;2024-02-14T09:20:05;8.50;38.10
3037;DHT22;1528;52.550;13.408;2024-02-14T09:22:53;8.50;38.40
3037;DHT22;1528;52.550;13.408;2024-02-14T09:25:39;8.50;38.40
3037;DHT22;1528;52.550;13.408;2024-02-14T09:28:25;8.50;38.40
3037;DHT22;1528;52.550;13.408;2024-02-14T09:31:10;8.60;38.90
3037;DHT22;1528;52.550;13.408;2024-02-14T09:33:56;8.60;39.20
3037;DHT22;1528;52.550;13.408;2024-02-14T09:36:43;8.60;39.50
3037;DHT22;1528;52.550;13.408;2024-02-14T09:39:29;8.60;40.10
3037;DHT22;1528;52.550;13.408;2024-02-14T09:42:16;8.60;40.40
3037;DHT22;1528;52.550;13.408;2024-02-14T09:45:06;8.60;41.10
3037;DHT22;1528;52.550;13.408;2024-02-14T09:47:52;8.60;41.20
3037;DHT22;1528;52.550;13.408;2024-02-14T09:50:38;8.60;41.50
3037;DHT22;1528;52.550;13.408;2024-02-14T09:53:26;8.70;41.80
3037;DHT22;1528;52.550;13.408;2024-02-14T09:56:14;8.70;42.10
3037;DHT22;1528;52.550;13.408;2024-02-14T09:59:02;8.70;42.30
3037;DHT22;1528;52.550;13.408;2024-02-14T10:01:48;8.70;42.80
3037;DHT22;1528;52.550;13.408;2024-02-14T10:08:36;8.70;44.10
3037;DHT22;1528;52.550;13.408;2024-02-14T10:11:22;8.70;43.90
3037;DHT22;1528;52.550;13.408;2024-02-14T10:14:11;8.70;44.60
3037;DHT22;1528;52.550;13.408;2024-02-14T10:17:04;8.80;44.70
3037;DHT22;1528;52.550;13.408;2024-02-14T10:19:57;8.90;44.80
3037;DHT22;1528;52.550;13.408;2024-02-14T10:22:42;9.10;45.20
3037;DHT22;1528;52.550;13.408;2024-02-14T10:25:37;9.20;44.50
3037;DHT22;1528;52.550;13.408;2024-02-14T10:28:23;9.30;44.40
3037;DHT22;1528;52.550;13.408;2024-02-14T10:31:10;9.30;44.40
3037;DHT22;1528;52.550;13.408;2024-02-14T10:33:56;9.20;44.30
3037;DHT22;1528;52.550;13.408;2024-02-14T10:36:43;9.20;44.90
3037;DHT22;1528;52.550;13.408;2024-02-14T10:39:29;9.40;45.30
3037;DHT22;1528;52.550;13.408;2024-02-14T10:42:17;9.30;45.50
3037;DHT22;1528;52.550;13.408;2024-02-14T10:45:04;9.40;45.30
3037;DHT22;1528;52.550;13.408;2024-02-14T10:47:51;9.40;44.80
3037;DHT22;1528;52.550;13.408;2024-02-14T10:50:40;9.50;45.00
3037;DHT22;1528;52.550;13.408;2024-02-14T10:53:28;9.50;44.90
3037;DHT22;1528;52.550;13.408;2024-02-14T10:56:17;9.50;45.20
3037;DHT22;1528;52.550;13.408;2024-02-14T10:59:06;9.50;45.30
3037;DHT22;1528;52.550;13.408;2024-02-14T11:01:54;9.50;45.40
3037;DHT22;1528;52.550;13.408;2024-02-14T11:04:41;9.70;45.60
3037;DHT22;1528;52.550;13.408;2024-02-14T11:07:27;9.90;45.50
3037;DHT22;1528;52.550;13.408;2024-02-14T11:10:15;10.00;44.30
3037;DHT22;1528;52.550;13.408;2024-02-14T11:13:01;10.10;44.10
3037;DHT22;1528;52.550;13.408;2024-02-14T11:15:51;10.20;43.90
3037;DHT22;1528;52.550;13.408;2024-02-14T11:18:39;10.40;44.40
3037;DHT22;1528;52.550;13.408;2024-02-14T11:21:28;10.40;43.00
3037;DHT22;1528;52.550;13.408;2024-02-14T11:24:15;10.40;43.00
3037;DHT22;1528;52.550;13.408;2024-02-14T11:27:02;10.20;43.40
3037;DHT22;1528;52.550;13.408;2024-02-14T11:29:53;10.20;43.90
3037;DHT22;1528;52.550;13.408;2024-02-14T11:32:40;10.10;44.50
3037;DHT22;1528;52.550;13.408;2024-02-14T11:35:28;10.10;44.60
3037;DHT22;1528;52.550;13.408;2024-02-14T11:38:13;10.00;44.80
3037;DHT22;1528;52.550;13.408;2024-02-14T11:40:59;10.00;45.00
3037;DHT22;1528;52.550;13.408;2024-02-14T11:43:51;10.00;45.30
3037;DHT22;1528;52.550;13.408;2024-02-14T11:46:37;9.90;46.40
3037;DHT22;1528;52.550;13.408;2024-02-14T11:49:23;9.80;46.50
3037;DHT22;1528;52.550;13.408;2024-02-14T11:52:10;9.80;46.90
3037;DHT22;1528;52.550;13.408;2024-02-14T11:54:56;9.80;46.70
3037;DHT22;1528;52.550;13.408;2024-02-14T11:57:43;9.80;46.90
3037;DHT22;1528;52.550;13.408;2024-02-14T12:00:31;9.80;46.70
3037;DHT22;1528;52.550;13.408;2024-02-14T12:03:18;9.90;46.90
3037;DHT22;1528;52.550;13.408;2024-02-14T12:06:06;9.80;46.90
3037;DHT22;1528;52.550;13.408;2024-02-14T12:08:52;9.80;47.40
3037;DHT22;1528;52.550;13.408;2024-02-14T12:11:40;9.90;47.50
3037;DHT22;1528;52.550;13.408;2024-02-14T12:14:27;9.60;47.70
3037;DHT22;1528;52.550;13.408;2024-02-14T12:17:13;9.80;48.10
3037;DHT22;1528;52.550;13.408;2024-02-14T12:20:07;9.80;48.50
3037;DHT22;1528;52.550;13.408;2024-02-14T12:22:55;9.80;48.60
3037;DHT22;1528;52.550;13.408;2024-02-14T12:25:41;9.70;48.90
3037;DHT22;1528;52.550;13.408;2024-02-14T12:28:29;9.80;49.40
3037;DHT22;1528;52.550;13.408;2024-02-14T12:31:21;9.80;49.40
3037;DHT22;1528;52.550;13.408;2024-02-14T12:34:10;9.90;49.30
3037;DHT22;1528;52.550;13.408;2024-02-14T12:36:56;9.90;49.70
3037;DHT22;1528;52.550;13.408;2024-02-14T12:39:43;10.00;49.10
3037;DHT22;1528;52.550;13.408;2024-02-14T12:42:28;10.10;48.70
3037;DHT22;1528;52.550;13.408;2024-02-14T12:45:14;10.10;48.60
3037;DHT22;1528;52.550;13.408;2024-02-14T12:48:00;10.10;48.90
3037;DHT22;1528;52.550;13.408;2024-02-14T12:50:45;10.10;49.30
3037;DHT22;1528;52.550;13.408;2024-02-14T12:53:33;10.10;49.70
3037;DHT22;1528;52.550;13.408;2024-02-14T12:56:20;10.10;49.30
3037;DHT22;1528;52.550;13.408;2024-02-14T12:59:18;10.10;49.50
3037;DHT22;1528;52.550;13.408;2024-02-14T13:02:04;10.10;49.40
3037;DHT22;1528;52.550;13.408;2024-02-14T13:04:52;10.10;49.50
3037;DHT22;1528;52.550;13.408;2024-02-14T13:07:37;10.20;49.70
3037;DHT22;1528;52.550;13.408;2024-02-14T13:10:23;10.20;49.70
3037;DHT22;1528;52.550;13.408;2024-02-14T13:13:23;10.30;49.90
3037;DHT22;1528;52.550;13.408;2024-02-14T13:16:08;10.30;50.30
3037;DHT22;1528;52.550;13.408;2024-02-14T13:18:54;10.20;50.50
3037;DHT22;1528;52.550;13.408;2024-02-14T13:21:40;10.20;50.80
3037;DHT22;1528;52.550;13.408;2024-02-14T13:24:29;10.20;51.30
3037;DHT22;1528;52.550;13.408;2024-02-14T13:27:15;10.10;52.40
3037;DHT22;1528;52.550;13.408;2024-02-14T13:30:02;10.10;52.40
3037;DHT22;1528;52.550;13.408;2024-02-14T13:32:48;10.20;52.60
3037;DHT22;1528;52.550;13.408;2024-02-14T13:35:47;10.20;52.80
3037;DHT22;1528;52.550;13.408;2024-02-14T13:38:34;10.20;53.00
3037;DHT22;1528;52.550;13.408;2024-02-14T13:41:20;10.20;53.40
3037;DHT22;1528;52.550;13.408;2024-02-14T13:44:07;10.20;53.50
3037;DHT22;1528;52.550;13.408;2024-02-14T13:46:54;10.20;53.80
3037;DHT22;1528;52.550;13.408;2024-02-14T13:49:39;10.20;53.80
3037;DHT22;1528;52.550;13.408;2024-02-14T13:52:25;10.20;54.00
3037;DHT22;1528;52.550;13.408;2024-02-14T13:55:11;10.20;54.30
3037;DHT22;1528;52.550;13.408;2024-02-14T13:57:56;10.20;54.70
3037;DHT22;1528;52.550;13.408;2024-02-14T14:00:42;10.20;54.60
3037;DHT22;1528;52.550;13.408;2024-02-14T14:03:29;10.30;55.10
3037;DHT22;1528;52.550;13.408;2024-02-14T14:06:17;10.30;55.30
3037;DHT22;1528;52.550;13.408;2024-02-14T14:09:03;10.30;55.30
3037;DHT22;1528;52.550;13.408;2024-02-14T14:11:49;10.30;55.60
3037;DHT22;1528;52.550;13.408;2024-02-14T14:14:37;10.30;55.90
3037;DHT22;1528;52.550;13.408;2024-02-14T14:17:22;10.30;56.00
3037;DHT22;1528;52.550;13.408;2024-02-14T14:20:11;10.30;56.20
3037;DHT22;1528;52.550;13.408;2024-02-14T14:22:56;10.30;56.30
3037;DHT22;1528;52.550;13.408;2024-02-14T14:25:42;10.30;56.80
3037;DHT22;1528;52.550;13.408;2024-02-14T14:28:28;10.30;56.90
3037;DHT22;1528;52.550;13.408;2024-02-14T14:31:16;10.30;56.90
3037;DHT22;1528;52.550;13.408;2024-02-14T14:34:02;10.30;57.30
3037;DHT22;1528;52.550;13.408;2024-02-14T14:36:49;10.30;57.30
3037;DHT22;1528;52.550;13.408;2024-02-14T14:39:37;10.40;57.70
3037;DHT22;1528;52.550;13.408;2024-02-14T14:42:24;10.30;57.50
3037;DHT22;1528;52.550;13.408;2024-02-14T14:45:10;10.30;57.30
3037;DHT22;1528;52.550;13.408;2024-02-14T14:47:55;10.40;57.40
3037;DHT22;1528;52.550;13.408;2024-02-14T14:50:54;10.40;57.30
3037;DHT22;1528;52.550;13.408;2024-02-14T14:53:41;10.40;57.40
3037;DHT22;1528;52.550;13.408;2024-02-14T14:56:27;10.40;57.40
3037;DHT22;1528;52.550;13.408;2024-02-14T14:59:13;10.40;57.30
3037;DHT22;1528;52.550;13.408;2024-02-14T15:01:59;10.50;57.20
3037;DHT22;1528;52.550;13.408;2024-02-14T15:04:45;10.50;57.10
3037;DHT22;1528;52.550;13.408;2024-02-14T15:07:31;10.50;57.10
3037;DHT22;1528;52.550;13.408;2024-02-14T15:10:18;10.60;56.90
3037;DHT22;1528;52.550;13.408;2024-02-14T15:13:04;10.50;57.00
3037;DHT22;1528;52.550;13.408;2024-02-14T15:15:51;10.50;57.70
3037;DHT22;1528;52.550;13.408;2024-02-14T15:18:37;10.50;57.20
3037;DHT22;1528;52.550;13.408;2024-02-14T15:21:23;10.60;57.20
3037;DHT22;1528;52.550;13.408;2024-02-14T15:24:09;10.60;57.10
3037;DHT22;1528;52.550;13.408;2024-02-14T15:26:58;10.60;56.90
3037;DHT22;1528;52.550;13.408;2024-02-14T15:29:50;10.70;57.00
3037;DHT22;1528;52.550;13.408;2024-02-14T15:32:53;10.70;57.00
3037;DHT22;1528;52.550;13.408;2024-02-14T15:35:57;10.80;56.90
3037;DHT22;1528;52.550;13.408;2024-02-14T15:38:43;10.70;56.80
3037;DHT22;1528;52.550;13.408;2024-02-14T15:41:29;10.70;56.80
3037;DHT22;1528;52.550;13.408;2024-02-14T15:44:17;10.80;56.90
3037;DHT22;1528;52.550;13.408;2024-02-14T15:47:03;10.80;56.90
3037;DHT22;1528;52.550;13.408;2024-02-14T15:49:54;10.80;56.90
3037;DHT22;1528;52.550;13.408;2024-02-14T15:52:40;10.80;56.80
3037;DHT22;1528;52.550;13.408;2024-02-14T15:55:26;10.80;56.80
3037;DHT22;1528;52.550;13.408;2024-02-14T15:58:12;10.80;56.90
3037;DHT22;1528;52.550;13.408;2024-02-14T16:00:59;10.80;56.90
3037;DHT22;1528;52.550;13.408;2024-02-14T16:03:45;10.80;56.80
3037;DHT22;1528;52.550;13.408;2024-02-14T16:06:32;10.80;56.80
3037;DHT22;1528;52.550;13.408;2024-02-14T16:09:19;10.80;56.90
3037;DHT22;1528;52.550;13.408;2024-02-14T16:12:05;10.80;56.80
3037;DHT22;1528;52.550;13.408;2024-02-14T16:14:51;10.80;56.90
3037;DHT22;1528;52.550;13.408;2024-02-14T16:17:39;10.80;56.90
3037;DHT22;1528;52.550;13.408;2024-02-14T16:20:24;10.80;56.90
3037;DHT22;1528;52.550;13.408;2024-02-14T16:23:10;10.80;56.90
3037;DHT22;1528;52.550;13.408;2024-02-14T16:25:56;10.80;56.90
3037;DHT22;1528;52.550;13.408;2024-02-14T16:28:41;10.80;56.90
3037;DHT22;1528;52.550;13.408;2024-02-14T16:31:27;10.80;57.00
3037;DHT22;1528;52.550;13.408;2024-02-14T16:34:14;10.80;57.10
3037;DHT22;1528;52.550;13.408;2024-02-14T16:37:00;10.90;57.10
3037;DHT22;1528;52.550;13.408;2024-02-14T16:39:45;10.90;57.10
3037;DHT22;1528;52.550;13.408;2024-02-14T16:42:33;10.90;57.10
3037;DHT22;1528;52.550;13.408;2024-02-14T16:45:18;10.90;56.90
3037;DHT22;1528;52.550;13.408;2024-02-14T16:48:05;10.90;56.90
3037;DHT22;1528;52.550;13.408;2024-02-14T16:50:52;10.90;57.10
3037;DHT22;1528;52.550;13.408;2024-02-14T16:53:37;10.90;56.90
3037;DHT22;1528;52.550;13.408;2024-02-14T16:56:23;10.90;56.90
3037;DHT22;1528;52.550;13.408;2024-02-14T16:59:15;10.90;56.70
3037;DHT22;1528;52.550;13.408;2024-02-14T17:02:01;10.90;56.50
3037;DHT22;1528;52.550;13.408;2024-02-14T17:04:46;10.90;56.50
3037;DHT22;1528;52.550;13.408;2024-02-14T17:07:35;10.90;56.50
3037;DHT22;1528;52.550;13.408;2024-02-14T17:10:21;10.90;56.20
3037;DHT22;1528;52.550;13.408;2024-02-14T17:13:08;10.90;56.20
3037;DHT22;1528;52.550;13.408;2024-02-14T17:15:55;10.90;56.20
3037;DHT22;1528;52.550;13.408;2024-02-14T17:18:42;10.90;56.20
3037;DHT22;1528;52.550;13.408;2024-02-14T17:21:27;10.90;56.00
3037;DHT22;1528;52.550;13.408;2024-02-14T17:24:22;10.90;55.80
3037;DHT22;1528;52.550;13.408;2024-02-14T17:27:08;11.00;55.80
3037;DHT22;1528;52.550;13.408;2024-02-14T17:29:54;11.00;55.80
3037;DHT22;1528;52.550;13.408;2024-02-14T17:32:39;11.00;55.50
3037;DHT22;1528;52.550;13.408;2024-02-14T17:35:30;11.00;55.40
3037;DHT22;1528;52.550;13.408;2024-02-14T17:38:15;11.00;55.20
3037;DHT22;1528;52.550;13.408;2024-02-14T17:41:03;11.00;54.90
3037;DHT22;1528;52.550;13.408;2024-02-14T17:43:48;11.00;55.00
3037;DHT22;1528;52.550;13.408;2024-02-14T17:46:34;11.10;54.80
3037;DHT22;1528;52.550;13.408;2024-02-14T17:49:19;11.10;54.80
3037;DHT22;1528;52.550;13.408;2024-02-14T17:52:05;11.10;55.50
3037;DHT22;1528;52.550;13.408;2024-02-14T17:54:51;11.10;55.40
3037;DHT22;1528;52.550;13.408;2024-02-14T17:57:40;11.10;54.80
3037;DHT22;1528;52.550;13.408;2024-02-14T18:00:25;11.10;54.80
3037;DHT22;1528;52.550;13.408;2024-02-14T18:03:11;11.10;54.90
3037;DHT22;1528;52.550;13.408;2024-02-14T18:05:57;11.10;55.00